sensor_id;sensor_type;location;lat;lon;timestamp;P1;durP1;ratioP1;P2;durP2;ratioP2
28523;SDS011;15734;50.904;6.922;2023-07-31T00:01:00;9.07;;;3.70;;
28523;SDS011;15734;50.904;6.922;2023-07-31T00:03:25;10.27;;;3.70;;
28523;SDS011;15734;50.904;6.922;2023-07-31T00:05:51;8.43;;;4.07;;
28523;SDS011;15734;50.904;6.922;2023-07-31T00:08:16;11.50;;;4.03;;
28523;SDS011;15734;50.904;6.922;2023-07-31T00:10:42;12.00;;;3.80;;
28523;SDS011;15734;50.904;6.922;2023-07-31T00:13:07;13.55;;;4.15;;
28523;SDS011;15734;50.904;6.922;2023-07-31T00:15:33;17.05;;;4.70;;
28523;SDS011;15734;50.904;6.922;2023-07-31T00:17:58;7.68;;;3.40;;
28523;SDS011;15734;50.904;6.922;2023-07-31T00:20:25;12.43;;;4.30;;
28523;SDS011;15734;50.904;6.922;2023-07-31T00:22:51;12.55;;;4.45;;
28523;SDS011;15734;50.904;6.922;2023-07-31T00:25:16;13.35;;;4.78;;
28523;SDS011;15734;50.904;6.922;2023-07-31T00:27:42;11.75;;;4.40;;
28523;SDS011;15734;50.904;6.922;2023-07-31T00:30:09;12.95;;;3.78;;
28523;SDS011;15734;50.904;6.922;2023-07-31T00:32:35;14.50;;;4.63;;
28523;SDS011;15734;50.904;6.922;2023-07-31T00:35:01;12.32;;;3.33;;
28523;SDS011;15734;50.904;6.922;2023-07-31T00:37:27;7.93;;;3.20;;
28523;SDS011;15734;50.904;6.922;2023-07-31T00:39:52;6.03;;;3.22;;
28523;SDS011;15734;50.904;6.922;2023-07-31T00:42:18;10.02;;;3.80;;
28523;SDS011;15734;50.904;6.922;2023-07-31T00:44:43;9.68;;;3.08;;
28523;SDS011;15734;50.904;6.922;2023-07-31T00:47:09;9.77;;;3.00;;
28523;SDS011;15734;50.904;6.922;2023-07-31T00:49:34;6.63;;;3.00;;
28523;SDS011;15734;50.904;6.922;2023-07-31T00:52:00;13.27;;;3.00;;
28523;SDS011;15734;50.904;6.922;2023-07-31T00:54:27;6.75;;;3.08;;
28523;SDS011;15734;50.904;6.922;2023-07-31T00:56:53;10.23;;;3.90;;
28523;SDS011;15734;50.904;6.922;2023-07-31T00:59:19;13.38;;;3.30;;
28523;SDS011;15734;50.904;6.922;2023-07-31T01:01:45;8.55;;;3.35;;
28523;SDS011;15734;50.904;6.922;2023-07-31T01:04:11;7.25;;;3.08;;
28523;SDS011;15734;50.904;6.922;2023-07-31T01:12:27;5.88;;;2.97;;
28523;SDS011;15734;50.904;6.922;2023-07-31T01:17:31;10.15;;;3.22;;
28523;SDS011;15734;50.904;6.922;2023-07-31T01:19:58;10.55;;;3.58;;
28523;SDS011;15734;50.904;6.922;2023-07-31T01:22:31;8.27;;;3.40;;
28523;SDS011;15734;50.904;6.922;2023-07-31T01:25:08;7.40;;;3.60;;
28523;SDS011;15734;50.904;6.922;2023-07-31T01:27:39;12.43;;;3.28;;
28523;SDS011;15734;50.904;6.922;2023-07-31T01:30:20;10.50;;;3.13;;
28523;SDS011;15734;50.904;6.922;2023-07-31T01:32:50;9.70;;;2.88;;
28523;SDS011;15734;50.904;6.922;2023-07-31T01:35:17;8.45;;;2.95;;
28523;SDS011;15734;50.904;6.922;2023-07-31T01:37:43;9.68;;;3.40;;
28523;SDS011;15734;50.904;6.922;2023-07-31T01:40:10;9.05;;;2.75;;
28523;SDS011;15734;50.904;6.922;2023-07-31T01:42:35;7.18;;;3.95;;
28523;SDS011;15734;50.904;6.922;2023-07-31T01:45:01;13.27;;;3.28;;
28523;SDS011;15734;50.904;6.922;2023-07-31T01:47:27;7.80;;;3.10;;
28523;SDS011;15734;50.904;6.922;2023-07-31T01:49:52;6.80;;;2.95;;
28523;SDS011;15734;50.904;6.922;2023-07-31T01:52:18;8.88;;;2.92;;
28523;SDS011;15734;50.904;6.922;2023-07-31T01:54:43;8.90;;;3.15;;
28523;SDS011;15734;50.904;6.922;2023-07-31T01:57:09;7.25;;;3.25;;
28523;SDS011;15734;50.904;6.922;2023-07-31T01:59:34;6.15;;;2.78;;
28523;SDS011;15734;50.904;6.922;2023-07-31T02:02:00;9.10;;;3.58;;
28523;SDS011;15734;50.904;6.922;2023-07-31T02:04:25;10.43;;;3.03;;
28523;SDS011;15734;50.904;6.922;2023-07-31T02:06:52;6.18;;;2.88;;
28523;SDS011;15734;50.904;6.922;2023-07-31T02:09:18;10.55;;;3.47;;
28523;SDS011;15734;50.904;6.922;2023-07-31T02:11:43;15.90;;;3.97;;
28523;SDS011;15734;50.904;6.922;2023-07-31T02:14:09;8.45;;;2.90;;
28523;SDS011;15734;50.904;6.922;2023-07-31T02:16:34;9.90;;;2.83;;
28523;SDS011;15734;50.904;6.922;2023-07-31T02:19:00;11.85;;;3.25;;
28523;SDS011;15734;50.904;6.922;2023-07-31T02:21:25;12.75;;;3.75;;
28523;SDS011;15734;50.904;6.922;2023-07-31T02:23:51;10.52;;;3.50;;
28523;SDS011;15734;50.904;6.922;2023-07-31T02:26:16;13.63;;;4.10;;
28523;SDS011;15734;50.904;6.922;2023-07-31T02:28:42;13.32;;;4.47;;
28523;SDS011;15734;50.904;6.922;2023-07-31T02:31:08;13.60;;;3.90;;
28523;SDS011;15734;50.904;6.922;2023-07-31T02:33:33;15.57;;;3.72;;
28523;SDS011;15734;50.904;6.922;2023-07-31T02:35:59;11.40;;;4.05;;
28523;SDS011;15734;50.904;6.922;2023-07-31T02:38:24;12.30;;;3.72;;
28523;SDS011;15734;50.904;6.922;2023-07-31T02:40:50;9.98;;;5.07;;
28523;SDS011;15734;50.904;6.922;2023-07-31T02:43:16;13.43;;;3.58;;
28523;SDS011;15734;50.904;6.922;2023-07-31T02:45:41;12.70;;;3.97;;
28523;SDS011;15734;50.904;6.922;2023-07-31T02:48:07;14.65;;;4.28;;
28523;SDS011;15734;50.904;6.922;2023-07-31T02:50:32;11.38;;;3.45;;
28523;SDS011;15734;50.904;6.922;2023-07-31T02:52:58;16.42;;;4.07;;
28523;SDS011;15734;50.904;6.922;2023-07-31T02:55:23;9.48;;;4.20;;
28523;SDS011;15734;50.904;6.922;2023-07-31T02:57:49;7.18;;;3.17;;
28523;SDS011;15734;50.904;6.922;2023-07-31T03:00:15;8.35;;;3.58;;
28523;SDS011;15734;50.904;6.922;2023-07-31T03:02:41;13.63;;;3.88;;
28523;SDS011;15734;50.904;6.922;2023-07-31T03:05:06;10.98;;;3.55;;
28523;SDS011;15734;50.904;6.922;2023-07-31T03:07:32;13.35;;;3.70;;
28523;SDS011;15734;50.904;6.922;2023-07-31T03:09:58;14.38;;;3.95;;
28523;SDS011;15734;50.904;6.922;2023-07-31T03:12:23;12.50;;;3.53;;
28523;SDS011;15734;50.904;6.922;2023-07-31T03:14:49;13.88;;;4.38;;
28523;SDS011;15734;50.904;6.922;2023-07-31T03:17:15;10.18;;;4.60;;
28523;SDS011;15734;50.904;6.922;2023-07-31T03:19:40;12.77;;;4.20;;
28523;SDS011;15734;50.904;6.922;2023-07-31T03:22:06;14.07;;;4.43;;
28523;SDS011;15734;50.904;6.922;2023-07-31T03:24:31;10.48;;;3.67;;
28523;SDS011;15734;50.904;6.922;2023-07-31T03:26:57;9.82;;;4.13;;
28523;SDS011;15734;50.904;6.922;2023-07-31T03:29:22;12.20;;;3.92;;
28523;SDS011;15734;50.904;6.922;2023-07-31T03:31:48;13.55;;;4.88;;
28523;SDS011;15734;50.904;6.922;2023-07-31T03:34:14;19.77;;;4.72;;
28523;SDS011;15734;50.904;6.922;2023-07-31T03:36:39;16.17;;;5.05;;
28523;SDS011;15734;50.904;6.922;2023-07-31T03:39:05;10.02;;;3.83;;
28523;SDS011;15734;50.904;6.922;2023-07-31T03:41:30;15.30;;;4.35;;
28523;SDS011;15734;50.904;6.922;2023-07-31T03:43:56;9.07;;;4.15;;
28523;SDS011;15734;50.904;6.922;2023-07-31T03:46:22;10.70;;;3.85;;
28523;SDS011;15734;50.904;6.922;2023-07-31T03:48:48;10.80;;;4.10;;
28523;SDS011;15734;50.904;6.922;2023-07-31T03:51:14;9.73;;;3.80;;
28523;SDS011;15734;50.904;6.922;2023-07-31T03:53:39;8.25;;;3.60;;
28523;SDS011;15734;50.904;6.922;2023-07-31T03:56:05;10.23;;;3.70;;
28523;SDS011;15734;50.904;6.922;2023-07-31T03:58:31;14.27;;;4.95;;
28523;SDS011;15734;50.904;6.922;2023-07-31T04:00:56;13.13;;;4.07;;
28523;SDS011;15734;50.904;6.922;2023-07-31T04:03:22;13.07;;;4.35;;
28523;SDS011;15734;50.904;6.922;2023-07-31T04:05:47;14.52;;;3.78;;
28523;SDS011;15734;50.904;6.922;2023-07-31T04:08:13;6.75;;;3.85;;
28523;SDS011;15734;50.904;6.922;2023-07-31T04:10:38;8.98;;;3.88;;
28523;SDS011;15734;50.904;6.922;2023-07-31T04:13:04;10.20;;;4.18;;
28523;SDS011;15734;50.904;6.922;2023-07-31T04:15:29;11.30;;;3.78;;
28523;SDS011;15734;50.904;6.922;2023-07-31T04:17:55;8.10;;;3.90;;
28523;SDS011;15734;50.904;6.922;2023-07-31T04:20:20;9.93;;;4.57;;
28523;SDS011;15734;50.904;6.922;2023-07-31T04:22:46;8.30;;;3.90;;
28523;SDS011;15734;50.904;6.922;2023-07-31T04:25:11;13.70;;;4.25;;
28523;SDS011;15734;50.904;6.922;2023-07-31T04:27:37;8.88;;;4.53;;
28523;SDS011;15734;50.904;6.922;2023-07-31T04:30:03;13.02;;;4.18;;
28523;SDS011;15734;50.904;6.922;2023-07-31T04:32:28;14.38;;;4.20;;
28523;SDS011;15734;50.904;6.922;2023-07-31T04:34:54;9.27;;;4.32;;
28523;SDS011;15734;50.904;6.922;2023-07-31T04:37:20;9.25;;;4.75;;
28523;SDS011;15734;50.904;6.922;2023-07-31T04:39:46;12.02;;;4.38;;
28523;SDS011;15734;50.904;6.922;2023-07-31T04:42:11;8.95;;;3.95;;
28523;SDS011;15734;50.904;6.922;2023-07-31T04:44:37;10.82;;;4.43;;
28523;SDS011;15734;50.904;6.922;2023-07-31T04:47:02;11.65;;;4.32;;
28523;SDS011;15734;50.904;6.922;2023-07-31T04:49:28;12.13;;;4.97;;
28523;SDS011;15734;50.904;6.922;2023-07-31T04:51:54;8.57;;;4.53;;
28523;SDS011;15734;50.904;6.922;2023-07-31T04:54:19;10.70;;;3.88;;
28523;SDS011;15734;50.904;6.922;2023-07-31T04:56:45;11.95;;;4.28;;
28523;SDS011;15734;50.904;6.922;2023-07-31T04:59:10;8.75;;;3.92;;
28523;SDS011;15734;50.904;6.922;2023-07-31T05:01:36;12.50;;;4.53;;
28523;SDS011;15734;50.904;6.922;2023-07-31T05:04:01;11.77;;;3.97;;
28523;SDS011;15734;50.904;6.922;2023-07-31T05:06:27;11.30;;;4.78;;
28523;SDS011;15734;50.904;6.922;2023-07-31T05:08:52;11.68;;;4.13;;
28523;SDS011;15734;50.904;6.922;2023-07-31T05:11:18;14.13;;;4.55;;
28523;SDS011;15734;50.904;6.922;2023-07-31T05:13:43;9.55;;;4.38;;
28523;SDS011;15734;50.904;6.922;2023-07-31T05:16:09;11.25;;;4.13;;
28523;SDS011;15734;50.904;6.922;2023-07-31T05:18:34;9.13;;;2.97;;
28523;SDS011;15734;50.904;6.922;2023-07-31T05:21:00;7.75;;;3.65;;
28523;SDS011;15734;50.904;6.922;2023-07-31T05:23:25;9.38;;;3.65;;
28523;SDS011;15734;50.904;6.922;2023-07-31T05:25:51;10.77;;;4.32;;
28523;SDS011;15734;50.904;6.922;2023-07-31T05:28:17;8.95;;;4.20;;
28523;SDS011;15734;50.904;6.922;2023-07-31T05:30:42;15.10;;;4.10;;
28523;SDS011;15734;50.904;6.922;2023-07-31T05:33:08;9.93;;;4.10;;
28523;SDS011;15734;50.904;6.922;2023-07-31T05:35:33;17.75;;;4.75;;
28523;SDS011;15734;50.904;6.922;2023-07-31T05:37:59;13.85;;;4.45;;
28523;SDS011;15734;50.904;6.922;2023-07-31T05:40:24;8.52;;;4.50;;
28523;SDS011;15734;50.904;6.922;2023-07-31T05:42:50;17.65;;;5.00;;
28523;SDS011;15734;50.904;6.922;2023-07-31T05:45:15;14.77;;;5.00;;
28523;SDS011;15734;50.904;6.922;2023-07-31T05:47:41;13.57;;;4.68;;
28523;SDS011;15734;50.904;6.922;2023-07-31T05:50:07;17.42;;;5.50;;
28523;SDS011;15734;50.904;6.922;2023-07-31T05:52:33;17.02;;;4.47;;
28523;SDS011;15734;50.904;6.922;2023-07-31T05:54:58;11.10;;;3.53;;
28523;SDS011;15734;50.904;6.922;2023-07-31T05:57:24;8.57;;;3.55;;
28523;SDS011;15734;50.904;6.922;2023-07-31T05:59:49;11.90;;;4.90;;
28523;SDS011;15734;50.904;6.922;2023-07-31T06:02:15;7.03;;;3.90;;
28523;SDS011;15734;50.904;6.922;2023-07-31T06:04:40;15.48;;;4.88;;
28523;SDS011;15734;50.904;6.922;2023-07-31T06:07:06;8.90;;;4.30;;
28523;SDS011;15734;50.904;6.922;2023-07-31T06:09:32;14.68;;;5.20;;
28523;SDS011;15734;50.904;6.922;2023-07-31T06:11:58;13.05;;;4.38;;
28523;SDS011;15734;50.904;6.922;2023-07-31T06:14:23;8.90;;;3.83;;
28523;SDS011;15734;50.904;6.922;2023-07-31T06:16:49;9.65;;;4.82;;
28523;SDS011;15734;50.904;6.922;2023-07-31T06:19:14;13.00;;;4.45;;
28523;SDS011;15734;50.904;6.922;2023-07-31T06:21:40;11.95;;;4.07;;
28523;SDS011;15734;50.904;6.922;2023-07-31T06:24:07;11.45;;;4.60;;
28523;SDS011;15734;50.904;6.922;2023-07-31T06:26:33;9.13;;;4.03;;
28523;SDS011;15734;50.904;6.922;2023-07-31T06:28:58;9.38;;;4.32;;
28523;SDS011;15734;50.904;6.922;2023-07-31T06:31:24;15.77;;;5.22;;
28523;SDS011;15734;50.904;6.922;2023-07-31T06:33:50;13.40;;;4.30;;
28523;SDS011;15734;50.904;6.922;2023-07-31T06:36:16;12.50;;;4.38;;
28523;SDS011;15734;50.904;6.922;2023-07-31T06:38:42;12.30;;;4.13;;
28523;SDS011;15734;50.904;6.922;2023-07-31T06:41:08;8.57;;;4.22;;
28523;SDS011;15734;50.904;6.922;2023-07-31T06:43:34;9.57;;;4.72;;
28523;SDS011;15734;50.904;6.922;2023-07-31T06:46:04;9.75;;;4.82;;
28523;SDS011;15734;50.904;6.922;2023-07-31T06:48:33;11.27;;;4.10;;
28523;SDS011;15734;50.904;6.922;2023-07-31T06:51:00;12.10;;;4.88;;
28523;SDS011;15734;50.904;6.922;2023-07-31T06:53:25;11.02;;;4.25;;
28523;SDS011;15734;50.904;6.922;2023-07-31T06:55:51;8.18;;;4.22;;
28523;SDS011;15734;50.904;6.922;2023-07-31T06:58:17;10.57;;;4.20;;
28523;SDS011;15734;50.904;6.922;2023-07-31T07:00:42;12.95;;;4.57;;
28523;SDS011;15734;50.904;6.922;2023-07-31T07:03:08;9.35;;;4.22;;
28523;SDS011;15734;50.904;6.922;2023-07-31T07:05:33;10.52;;;4.18;;
28523;SDS011;15734;50.904;6.922;2023-07-31T07:07:59;8.82;;;4.47;;
28523;SDS011;15734;50.904;6.922;2023-07-31T07:10:25;12.13;;;4.55;;
28523;SDS011;15734;50.904;6.922;2023-07-31T07:12:50;14.25;;;5.28;;
28523;SDS011;15734;50.904;6.922;2023-07-31T07:15:16;8.77;;;4.35;;
28523;SDS011;15734;50.904;6.922;2023-07-31T07:17:42;10.23;;;4.43;;
28523;SDS011;15734;50.904;6.922;2023-07-31T07:20:07;9.48;;;4.20;;
28523;SDS011;15734;50.904;6.922;2023-07-31T07:22:33;7.78;;;3.75;;
28523;SDS011;15734;50.904;6.922;2023-07-31T07:24:59;16.35;;;5.03;;
28523;SDS011;15734;50.904;6.922;2023-07-31T07:27:24;12.73;;;4.35;;
28523;SDS011;15734;50.904;6.922;2023-07-31T07:29:50;12.13;;;4.28;;
28523;SDS011;15734;50.904;6.922;2023-07-31T07:32:19;8.73;;;4.40;;
28523;SDS011;15734;50.904;6.922;2023-07-31T07:34:46;8.43;;;4.25;;
28523;SDS011;15734;50.904;6.922;2023-07-31T07:37:12;8.68;;;3.65;;
28523;SDS011;15734;50.904;6.922;2023-07-31T07:39:38;10.30;;;4.78;;
28523;SDS011;15734;50.904;6.922;2023-07-31T07:42:04;11.05;;;4.63;;
28523;SDS011;15734;50.904;6.922;2023-07-31T07:44:29;11.02;;;4.43;;
28523;SDS011;15734;50.904;6.922;2023-07-31T07:46:55;11.70;;;5.00;;
28523;SDS011;15734;50.904;6.922;2023-07-31T07:49:20;13.48;;;5.60;;
28523;SDS011;15734;50.904;6.922;2023-07-31T07:51:47;10.90;;;4.00;;
28523;SDS011;15734;50.904;6.922;2023-07-31T07:54:13;12.57;;;4.28;;
28523;SDS011;15734;50.904;6.922;2023-07-31T07:56:39;15.57;;;5.30;;
28523;SDS011;15734;50.904;6.922;2023-07-31T07:59:04;9.52;;;4.68;;
28523;SDS011;15734;50.904;6.922;2023-07-31T08:01:30;9.57;;;4.35;;
28523;SDS011;15734;50.904;6.922;2023-07-31T08:03:56;14.02;;;4.28;;
28523;SDS011;15734;50.904;6.922;2023-07-31T08:06:21;14.75;;;5.05;;
28523;SDS011;15734;50.904;6.922;2023-07-31T08:08:47;8.55;;;3.80;;
28523;SDS011;15734;50.904;6.922;2023-07-31T08:11:13;10.30;;;4.20;;
28523;SDS011;15734;50.904;6.922;2023-07-31T08:13:38;8.40;;;3.70;;
28523;SDS011;15734;50.904;6.922;2023-07-31T08:16:04;12.40;;;3.70;;
28523;SDS011;15734;50.904;6.922;2023-07-31T08:18:30;8.15;;;3.42;;
28523;SDS011;15734;50.904;6.922;2023-07-31T08:20:57;10.80;;;3.53;;
28523;SDS011;15734;50.904;6.922;2023-07-31T08:23:22;9.38;;;4.05;;
28523;SDS011;15734;50.904;6.922;2023-07-31T08:25:48;10.98;;;4.13;;
28523;SDS011;15734;50.904;6.922;2023-07-31T08:28:15;9.27;;;4.18;;
28523;SDS011;15734;50.904;6.922;2023-07-31T08:30:41;12.10;;;4.55;;
28523;SDS011;15734;50.904;6.922;2023-07-31T08:33:07;6.47;;;3.55;;
28523;SDS011;15734;50.904;6.922;2023-07-31T08:35:33;16.13;;;4.85;;
28523;SDS011;15734;50.904;6.922;2023-07-31T08:37:58;7.50;;;4.15;;
28523;SDS011;15734;50.904;6.922;2023-07-31T08:40:24;8.15;;;3.55;;
28523;SDS011;15734;50.904;6.922;2023-07-31T08:42:53;9.15;;;3.72;;
28523;SDS011;15734;50.904;6.922;2023-07-31T08:45:21;9.70;;;3.35;;
28523;SDS011;15734;50.904;6.922;2023-07-31T08:47:48;8.15;;;3.83;;
28523;SDS011;15734;50.904;6.922;2023-07-31T08:50:15;11.68;;;3.65;;
28523;SDS011;15734;50.904;6.922;2023-07-31T08:52:43;9.88;;;3.90;;
28523;SDS011;15734;50.904;6.922;2023-07-31T08:55:08;5.75;;;3.53;;
28523;SDS011;15734;50.904;6.922;2023-07-31T08:57:35;12.20;;;3.85;;
28523;SDS011;15734;50.904;6.922;2023-07-31T09:00:03;10.90;;;3.58;;
28523;SDS011;15734;50.904;6.922;2023-07-31T09:03:17;16.02;;;4.05;;
28523;SDS011;15734;50.904;6.922;2023-07-31T09:05:28;9.38;;;3.88;;
28523;SDS011;15734;50.904;6.922;2023-07-31T09:07:55;12.23;;;4.13;;
28523;SDS011;15734;50.904;6.922;2023-07-31T09:10:22;11.07;;;6.45;;
28523;SDS011;15734;50.904;6.922;2023-07-31T09:12:48;12.45;;;4.97;;
28523;SDS011;15734;50.904;6.922;2023-07-31T09:15:15;11.80;;;4.35;;
28523;SDS011;15734;50.904;6.922;2023-07-31T09:17:41;8.18;;;3.67;;
28523;SDS011;15734;50.904;6.922;2023-07-31T09:22:41;8.73;;;3.85;;
28523;SDS011;15734;50.904;6.922;2023-07-31T09:30:26;10.18;;;3.47;;
28523;SDS011;15734;50.904;6.922;2023-07-31T09:32:59;5.28;;;3.17;;
28523;SDS011;15734;50.904;6.922;2023-07-31T09:35:32;8.23;;;3.67;;
28523;SDS011;15734;50.904;6.922;2023-07-31T09:38:19;6.63;;;2.85;;
28523;SDS011;15734;50.904;6.922;2023-07-31T09:40:45;15.05;;;3.72;;
28523;SDS011;15734;50.904;6.922;2023-07-31T09:43:21;10.82;;;3.05;;
28523;SDS011;15734;50.904;6.922;2023-07-31T09:45:47;9.05;;;3.17;;
28523;SDS011;15734;50.904;6.922;2023-07-31T09:48:18;6.13;;;3.00;;
28523;SDS011;15734;50.904;6.922;2023-07-31T09:50:44;7.78;;;3.20;;
28523;SDS011;15734;50.904;6.922;2023-07-31T09:53:11;8.07;;;2.75;;
28523;SDS011;15734;50.904;6.922;2023-07-31T09:55:37;11.45;;;3.55;;
28523;SDS011;15734;50.904;6.922;2023-07-31T09:58:04;8.95;;;3.05;;
28523;SDS011;15734;50.904;6.922;2023-07-31T10:00:31;6.35;;;2.53;;
28523;SDS011;15734;50.904;6.922;2023-07-31T10:03:01;6.53;;;2.67;;
28523;SDS011;15734;50.904;6.922;2023-07-31T10:05:36;9.93;;;2.35;;
28523;SDS011;15734;50.904;6.922;2023-07-31T10:08:07;7.22;;;2.83;;
28523;SDS011;15734;50.904;6.922;2023-07-31T10:10:35;6.88;;;2.42;;
28523;SDS011;15734;50.904;6.922;2023-07-31T10:13:02;10.63;;;5.95;;
28523;SDS011;15734;50.904;6.922;2023-07-31T10:15:29;9.55;;;5.05;;
28523;SDS011;15734;50.904;6.922;2023-07-31T10:17:56;8.02;;;3.25;;
28523;SDS011;15734;50.904;6.922;2023-07-31T10:20:24;5.65;;;3.22;;
28523;SDS011;15734;50.904;6.922;2023-07-31T10:22:51;7.38;;;3.00;;
28523;SDS011;15734;50.904;6.922;2023-07-31T10:25:18;5.95;;;2.90;;
28523;SDS011;15734;50.904;6.922;2023-07-31T10:27:45;8.18;;;3.13;;
28523;SDS011;15734;50.904;6.922;2023-07-31T10:30:14;10.90;;;3.10;;
28523;SDS011;15734;50.904;6.922;2023-07-31T10:32:41;5.25;;;2.75;;
28523;SDS011;15734;50.904;6.922;2023-07-31T10:35:09;4.85;;;2.88;;
28523;SDS011;15734;50.904;6.922;2023-07-31T10:40:18;8.40;;;2.50;;
28523;SDS011;15734;50.904;6.922;2023-07-31T10:45:36;7.32;;;3.45;;
28523;SDS011;15734;50.904;6.922;2023-07-31T10:48:06;9.52;;;2.65;;
28523;SDS011;15734;50.904;6.922;2023-07-31T10:50:46;3.35;;;1.90;;
28523;SDS011;15734;50.904;6.922;2023-07-31T10:53:22;8.98;;;2.75;;
28523;SDS011;15734;50.904;6.922;2023-07-31T10:55:48;4.40;;;2.00;;
28523;SDS011;15734;50.904;6.922;2023-07-31T10:58:16;7.65;;;2.40;;
28523;SDS011;15734;50.904;6.922;2023-07-31T11:00:44;4.43;;;1.80;;
28523;SDS011;15734;50.904;6.922;2023-07-31T11:03:15;2.20;;;1.40;;
28523;SDS011;15734;50.904;6.922;2023-07-31T11:08:21;4.70;;;1.77;;
28523;SDS011;15734;50.904;6.922;2023-07-31T11:11:34;3.65;;;1.20;;
28523;SDS011;15734;50.904;6.922;2023-07-31T11:16:15;2.83;;;1.20;;
28523;SDS011;15734;50.904;6.922;2023-07-31T11:18:42;2.78;;;1.30;;
28523;SDS011;15734;50.904;6.922;2023-07-31T11:21:13;2.28;;;1.17;;
28523;SDS011;15734;50.904;6.922;2023-07-31T11:23:39;1.70;;;1.20;;
28523;SDS011;15734;50.904;6.922;2023-07-31T11:26:05;2.97;;;1.13;;
28523;SDS011;15734;50.904;6.922;2023-07-31T11:28:32;3.47;;;1.05;;
28523;SDS011;15734;50.904;6.922;2023-07-31T11:31:00;2.45;;;1.00;;
28523;SDS011;15734;50.904;6.922;2023-07-31T11:33:26;8.32;;;3.17;;
28523;SDS011;15734;50.904;6.922;2023-07-31T11:35:52;11.65;;;6.30;;
28523;SDS011;15734;50.904;6.922;2023-07-31T11:38:24;3.15;;;1.25;;
28523;SDS011;15734;50.904;6.922;2023-07-31T11:40:52;4.82;;;1.35;;
28523;SDS011;15734;50.904;6.922;2023-07-31T11:43:19;1.85;;;0.80;;
28523;SDS011;15734;50.904;6.922;2023-07-31T11:45:49;2.20;;;1.17;;
28523;SDS011;15734;50.904;6.922;2023-07-31T11:48:19;1.88;;;0.88;;
28523;SDS011;15734;50.904;6.922;2023-07-31T11:50:49;2.10;;;0.75;;
28523;SDS011;15734;50.904;6.922;2023-07-31T11:53:15;3.55;;;0.70;;
28523;SDS011;15734;50.904;6.922;2023-07-31T11:55:43;2.30;;;1.05;;
28523;SDS011;15734;50.904;6.922;2023-07-31T11:58:10;3.10;;;0.85;;
28523;SDS011;15734;50.904;6.922;2023-07-31T12:00:36;0.70;;;0.70;;
28523;SDS011;15734;50.904;6.922;2023-07-31T12:03:01;2.50;;;1.38;;
28523;SDS011;15734;50.904;6.922;2023-07-31T12:05:27;1.23;;;0.90;;
28523;SDS011;15734;50.904;6.922;2023-07-31T12:07:54;4.05;;;1.13;;
28523;SDS011;15734;50.904;6.922;2023-07-31T12:10:30;1.38;;;0.70;;
28523;SDS011;15734;50.904;6.922;2023-07-31T12:15:32;8.88;;;3.63;;
28523;SDS011;15734;50.904;6.922;2023-07-31T12:18:14;1.30;;;1.15;;
28523;SDS011;15734;50.904;6.922;2023-07-31T12:20:44;2.03;;;1.08;;
28523;SDS011;15734;50.904;6.922;2023-07-31T12:23:21;1.35;;;0.80;;
28523;SDS011;15734;50.904;6.922;2023-07-31T12:28:36;1.85;;;0.95;;
28523;SDS011;15734;50.904;6.922;2023-07-31T12:31:03;1.40;;;0.95;;
28523;SDS011;15734;50.904;6.922;2023-07-31T12:33:33;3.03;;;1.20;;
28523;SDS011;15734;50.904;6.922;2023-07-31T12:36:01;2.30;;;1.08;;
28523;SDS011;15734;50.904;6.922;2023-07-31T12:38:28;1.77;;;1.40;;
28523;SDS011;15734;50.904;6.922;2023-07-31T12:40:54;1.58;;;1.13;;
28523;SDS011;15734;50.904;6.922;2023-07-31T12:43:20;2.33;;;1.52;;
28523;SDS011;15734;50.904;6.922;2023-07-31T12:45:45;1.55;;;1.10;;
28523;SDS011;15734;50.904;6.922;2023-07-31T12:48:12;5.28;;;1.60;;
28523;SDS011;15734;50.904;6.922;2023-07-31T12:50:38;6.38;;;3.50;;
28523;SDS011;15734;50.904;6.922;2023-07-31T12:53:04;4.50;;;2.30;;
28523;SDS011;15734;50.904;6.922;2023-07-31T12:55:30;3.67;;;1.80;;
28523;SDS011;15734;50.904;6.922;2023-07-31T12:57:56;3.78;;;2.10;;
28523;SDS011;15734;50.904;6.922;2023-07-31T13:00:22;7.10;;;2.83;;
28523;SDS011;15734;50.904;6.922;2023-07-31T13:02:47;3.83;;;2.33;;
28523;SDS011;15734;50.904;6.922;2023-07-31T13:05:14;5.97;;;2.17;;
28523;SDS011;15734;50.904;6.922;2023-07-31T13:07:39;4.22;;;2.30;;
28523;SDS011;15734;50.904;6.922;2023-07-31T13:10:06;5.95;;;2.60;;
28523;SDS011;15734;50.904;6.922;2023-07-31T13:12:32;6.03;;;3.20;;
28523;SDS011;15734;50.904;6.922;2023-07-31T13:14:57;5.85;;;2.67;;
28523;SDS011;15734;50.904;6.922;2023-07-31T13:17:23;4.47;;;2.22;;
28523;SDS011;15734;50.904;6.922;2023-07-31T13:19:49;7.78;;;2.97;;
28523;SDS011;15734;50.904;6.922;2023-07-31T13:22:14;4.57;;;2.70;;
28523;SDS011;15734;50.904;6.922;2023-07-31T13:24:40;7.38;;;3.28;;
28523;SDS011;15734;50.904;6.922;2023-07-31T13:27:06;4.97;;;2.72;;
28523;SDS011;15734;50.904;6.922;2023-07-31T13:29:32;5.30;;;2.55;;
28523;SDS011;15734;50.904;6.922;2023-07-31T13:31:57;3.83;;;2.05;;
28523;SDS011;15734;50.904;6.922;2023-07-31T13:34:23;3.95;;;2.53;;
28523;SDS011;15734;50.904;6.922;2023-07-31T13:36:49;3.72;;;2.42;;
28523;SDS011;15734;50.904;6.922;2023-07-31T13:39:14;4.47;;;2.50;;
28523;SDS011;15734;50.904;6.922;2023-07-31T13:41:40;5.70;;;2.38;;
28523;SDS011;15734;50.904;6.922;2023-07-31T13:44:05;6.47;;;2.70;;
28523;SDS011;15734;50.904;6.922;2023-07-31T13:46:31;4.90;;;2.78;;
28523;SDS011;15734;50.904;6.922;2023-07-31T13:48:57;4.22;;;2.60;;
28523;SDS011;15734;50.904;6.922;2023-07-31T13:51:24;7.65;;;2.92;;
28523;SDS011;15734;50.904;6.922;2023-07-31T13:53:50;3.75;;;2.38;;
28523;SDS011;15734;50.904;6.922;2023-07-31T13:56:16;3.45;;;1.95;;
28523;SDS011;15734;50.904;6.922;2023-07-31T13:58:41;4.28;;;2.38;;
28523;SDS011;15734;50.904;6.922;2023-07-31T14:01:07;3.30;;;1.88;;
28523;SDS011;15734;50.904;6.922;2023-07-31T14:03:32;5.22;;;2.58;;
28523;SDS011;15734;50.904;6.922;2023-07-31T14:05:58;3.42;;;2.20;;
28523;SDS011;15734;50.904;6.922;2023-07-31T14:08:24;3.30;;;1.90;;
28523;SDS011;15734;50.904;6.922;2023-07-31T14:10:49;2.30;;;1.88;;
28523;SDS011;15734;50.904;6.922;2023-07-31T14:13:15;3.35;;;1.80;;
28523;SDS011;15734;50.904;6.922;2023-07-31T14:15:43;2.33;;;1.83;;
28523;SDS011;15734;50.904;6.922;2023-07-31T14:18:09;7.25;;;2.13;;
28523;SDS011;15734;50.904;6.922;2023-07-31T14:20:35;5.68;;;2.38;;
28523;SDS011;15734;50.904;6.922;2023-07-31T14:23:00;3.35;;;1.90;;
28523;SDS011;15734;50.904;6.922;2023-07-31T14:25:27;6.88;;;2.40;;
28523;SDS011;15734;50.904;6.922;2023-07-31T14:27:52;4.47;;;2.47;;
28523;SDS011;15734;50.904;6.922;2023-07-31T14:30:18;6.95;;;2.88;;
28523;SDS011;15734;50.904;6.922;2023-07-31T14:32:44;5.25;;;2.75;;
28523;SDS011;15734;50.904;6.922;2023-07-31T14:35:09;3.15;;;1.98;;
28523;SDS011;15734;50.904;6.922;2023-07-31T14:37:44;5.15;;;2.42;;
28523;SDS011;15734;50.904;6.922;2023-07-31T14:40:11;4.47;;;2.42;;
28523;SDS011;15734;50.904;6.922;2023-07-31T14:42:38;4.07;;;2.30;;
28523;SDS011;15734;50.904;6.922;2023-07-31T14:45:04;5.32;;;3.10;;
28523;SDS011;15734;50.904;6.922;2023-07-31T14:47:31;4.40;;;2.72;;
28523;SDS011;15734;50.904;6.922;2023-07-31T14:49:57;5.32;;;2.70;;
28523;SDS011;15734;50.904;6.922;2023-07-31T14:52:23;5.88;;;2.70;;
28523;SDS011;15734;50.904;6.922;2023-07-31T14:54:49;5.82;;;2.92;;
28523;SDS011;15734;50.904;6.922;2023-07-31T14:57:15;4.32;;;2.72;;
28523;SDS011;15734;50.904;6.922;2023-07-31T14:59:41;7.18;;;2.88;;
28523;SDS011;15734;50.904;6.922;2023-07-31T15:02:07;5.78;;;2.78;;
28523;SDS011;15734;50.904;6.922;2023-07-31T15:04:34;5.38;;;2.90;;
28523;SDS011;15734;50.904;6.922;2023-07-31T15:07:00;3.97;;;2.90;;
28523;SDS011;15734;50.904;6.922;2023-07-31T15:09:25;3.95;;;2.55;;
28523;SDS011;15734;50.904;6.922;2023-07-31T15:11:51;4.30;;;2.80;;